sensor_id;sensor_type;location;lat;lon;timestamp;temperature;humidity
17331;DHT22;8783;52.448;4.638;2023-11-19T00:02:21;16.50;99.90
17331;DHT22;8783;52.448;4.638;2023-11-19T00:04:47;16.50;99.90
17331;DHT22;8783;52.448;4.638;2023-11-19T00:07:12;16.50;99.90
17331;DHT22;8783;52.448;4.638;2023-11-19T00:09:39;16.50;99.90
17331;DHT22;8783;52.448;4.638;2023-11-19T00:12:06;16.50;99.90
17331;DHT22;8783;52.448;4.638;2023-11-19T00:14:32;16.50;99.90
17331;DHT22;8783;52.448;4.638;2023-11-19T00:16:58;16.50;99.90
17331;DHT22;8783;52.448;4.638;2023-11-19T00:19:24;16.40;99.90
17331;DHT22;8783;52.448;4.638;2023-11-19T00:21:50;16.40;99.90
17331;DHT22;8783;52.448;4.638;2023-11-19T00:24:16;16.40;99.90
17331;DHT22;8783;52.448;4.638;2023-11-19T00:26:42;16.40;99.90
17331;DHT22;8783;52.448;4.638;2023-11-19T00:29:08;16.40;99.90
17331;DHT22;8783;52.448;4.638;2023-11-19T00:31:34;16.50;99.90
17331;DHT22;8783;52.448;4.638;2023-11-19T00:34:00;16.40;99.90
17331;DHT22;8783;52.448;4.638;2023-11-19T00:36:27;16.40;99.90
17331;DHT22;8783;52.448;4.638;2023-11-19T00:38:53;16.40;99.90
17331;DHT22;8783;52.448;4.638;2023-11-19T00:41:19;16.40;99.90
17331;DHT22;8783;52.448;4.638;2023-11-19T00:43:44;16.40;99.90
17331;DHT22;8783;52.448;4.638;2023-11-19T00:46:10;16.40;99.90
17331;DHT22;8783;52.448;4.638;2023-11-19T00:48:41;16.40;99.90
17331;DHT22;8783;52.448;4.638;2023-11-19T00:51:07;16.40;99.90
17331;DHT22;8783;52.448;4.638;2023-11-19T00:53:33;16.40;99.90
17331;DHT22;8783;52.448;4.638;2023-11-19T00:56:02;16.40;99.90
17331;DHT22;8783;52.448;4.638;2023-11-19T00:58:27;16.40;99.90
17331;DHT22;8783;52.448;4.638;2023-11-19T01:00:53;16.40;99.90
17331;DHT22;8783;52.448;4.638;2023-11-19T01:03:18;16.40;99.90
17331;DHT22;8783;52.448;4.638;2023-11-19T01:05:44;16.40;99.90
17331;DHT22;8783;52.448;4.638;2023-11-19T01:08:12;16.40;99.90
17331;DHT22;8783;52.448;4.638;2023-11-19T01:10:38;16.40;99.90
17331;DHT22;8783;52.448;4.638;2023-11-19T01:13:03;16.40;99.90
17331;DHT22;8783;52.448;4.638;2023-11-19T01:15:31;16.40;99.90
17331;DHT22;8783;52.448;4.638;2023-11-19T01:17:57;16.40;99.90
17331;DHT22;8783;52.448;4.638;2023-11-19T01:20:22;16.40;99.90
17331;DHT22;8783;52.448;4.638;2023-11-19T01:22:49;16.40;99.90
17331;DHT22;8783;52.448;4.638;2023-11-19T01:25:14;16.40;99.90
17331;DHT22;8783;52.448;4.638;2023-11-19T01:27:40;16.40;99.90
17331;DHT22;8783;52.448;4.638;2023-11-19T01:30:06;16.40;99.90
17331;DHT22;8783;52.448;4.638;2023-11-19T01:32:35;16.40;99.90
17331;DHT22;8783;52.448;4.638;2023-11-19T01:35:02;16.40;99.90
17331;DHT22;8783;52.448;4.638;2023-11-19T01:37:28;16.40;99.90
17331;DHT22;8783;52.448;4.638;2023-11-19T01:39:54;16.40;99.90
17331;DHT22;8783;52.448;4.638;2023-11-19T01:42:20;16.40;99.90
17331;DHT22;8783;52.448;4.638;2023-11-19T01:44:58;16.30;99.90
17331;DHT22;8783;52.448;4.638;2023-11-19T01:47:25;16.40;99.90
17331;DHT22;8783;52.448;4.638;2023-11-19T01:49:51;16.40;99.90
17331;DHT22;8783;52.448;4.638;2023-11-19T01:52:18;16.30;99.90
17331;DHT22;8783;52.448;4.638;2023-11-19T01:54:44;16.30;99.90
17331;DHT22;8783;52.448;4.638;2023-11-19T01:57:10;16.30;99.90
17331;DHT22;8783;52.448;4.638;2023-11-19T01:59:36;16.40;99.90
17331;DHT22;8783;52.448;4.638;2023-11-19T02:02:02;16.40;99.90
17331;DHT22;8783;52.448;4.638;2023-11-19T02:04:28;16.40;99.90
17331;DHT22;8783;52.448;4.638;2023-11-19T02:06:56;16.40;99.90
17331;DHT22;8783;52.448;4.638;2023-11-19T02:09:23;16.30;99.90
17331;DHT22;8783;52.448;4.638;2023-11-19T02:11:49;16.40;99.90
17331;DHT22;8783;52.448;4.638;2023-11-19T02:14:17;16.40;99.90
17331;DHT22;8783;52.448;4.638;2023-11-19T02:16:43;16.40;99.90
17331;DHT22;8783;52.448;4.638;2023-11-19T02:19:09;16.30;99.90
17331;DHT22;8783;52.448;4.638;2023-11-19T02:21:36;16.30;99.90
17331;DHT22;8783;52.448;4.638;2023-11-19T02:24:06;16.40;99.90
17331;DHT22;8783;52.448;4.638;2023-11-19T02:26:39;16.30;99.90
17331;DHT22;8783;52.448;4.638;2023-11-19T02:29:11;16.40;99.90
17331;DHT22;8783;52.448;4.638;2023-11-19T02:31:36;16.30;99.90
17331;DHT22;8783;52.448;4.638;2023-11-19T02:34:02;16.40;99.90
17331;DHT22;8783;52.448;4.638;2023-11-19T02:36:28;16.30;99.90
17331;DHT22;8783;52.448;4.638;2023-11-19T02:38:54;16.30;99.90
17331;DHT22;8783;52.448;4.638;2023-11-19T02:41:20;16.30;99.90
17331;DHT22;8783;52.448;4.638;2023-11-19T02:43:45;16.30;99.90
17331;DHT22;8783;52.448;4.638;2023-11-19T02:46:14;16.30;99.90
17331;DHT22;8783;52.448;4.638;2023-11-19T02:48:39;16.30;99.90
17331;DHT22;8783;52.448;4.638;2023-11-19T02:51:05;16.30;99.90
17331;DHT22;8783;52.448;4.638;2023-11-19T02:53:35;16.30;99.90
17331;DHT22;8783;52.448;4.638;2023-11-19T02:56:02;16.30;99.90
17331;DHT22;8783;52.448;4.638;2023-11-19T02:58:37;16.30;99.90
17331;DHT22;8783;52.448;4.638;2023-11-19T03:01:02;16.30;99.90
17331;DHT22;8783;52.448;4.638;2023-11-19T03:03:38;16.30;99.90
17331;DHT22;8783;52.448;4.638;2023-11-19T03:06:06;16.30;99.90
17331;DHT22;8783;52.448;4.638;2023-11-19T03:08:34;16.30;99.90
17331;DHT22;8783;52.448;4.638;2023-11-19T03:11:00;16.30;99.90
17331;DHT22;8783;52.448;4.638;2023-11-19T03:13:26;16.30;99.90
17331;DHT22;8783;52.448;4.638;2023-11-19T03:15:52;16.30;99.90
17331;DHT22;8783;52.448;4.638;2023-11-19T03:18:19;16.30;99.90
17331;DHT22;8783;52.448;4.638;2023-11-19T03:20:46;16.30;99.90
17331;DHT22;8783;52.448;4.638;2023-11-19T03:23:12;16.30;99.90
17331;DHT22;8783;52.448;4.638;2023-11-19T03:25:38;16.30;99.90
17331;DHT22;8783;52.448;4.638;2023-11-19T03:28:04;16.30;99.90
17331;DHT22;8783;52.448;4.638;2023-11-19T03:30:30;16.30;99.90
17331;DHT22;8783;52.448;4.638;2023-11-19T03:32:57;16.30;99.90
17331;DHT22;8783;52.448;4.638;2023-11-19T03:35:23;16.30;99.90
17331;DHT22;8783;52.448;4.638;2023-11-19T03:37:50;16.30;99.90
17331;DHT22;8783;52.448;4.638;2023-11-19T03:40:16;16.30;99.90
17331;DHT22;8783;52.448;4.638;2023-11-19T03:42:42;16.30;99.90
17331;DHT22;8783;52.448;4.638;2023-11-19T03:45:09;16.30;99.90
17331;DHT22;8783;52.448;4.638;2023-11-19T03:47:35;16.30;99.90
17331;DHT22;8783;52.448;4.638;2023-11-19T03:50:01;16.30;99.90
17331;DHT22;8783;52.448;4.638;2023-11-19T03:52:28;16.30;99.90
17331;DHT22;8783;52.448;4.638;2023-11-19T03:54:54;16.30;99.90
17331;DHT22;8783;52.448;4.638;2023-11-19T03:57:21;16.30;99.90
17331;DHT22;8783;52.448;4.638;2023-11-19T03:59:46;16.30;99.90
17331;DHT22;8783;52.448;4.638;2023-11-19T04:02:12;16.30;99.90
17331;DHT22;8783;52.448;4.638;2023-11-19T04:04:38;16.30;99.90
17331;DHT22;8783;52.448;4.638;2023-11-19T04:07:04;16.30;99.90
17331;DHT22;8783;52.448;4.638;2023-11-19T04:09:30;16.30;99.90
17331;DHT22;8783;52.448;4.638;2023-11-19T04:12:05;16.30;99.90
17331;DHT22;8783;52.448;4.638;2023-11-19T04:14:32;16.20;99.90
17331;DHT22;8783;52.448;4.638;2023-11-19T04:16:57;16.30;99.90
17331;DHT22;8783;52.448;4.638;2023-11-19T04:19:23;16.30;99.90
17331;DHT22;8783;52.448;4.638;2023-11-19T04:21:49;16.30;99.90
17331;DHT22;8783;52.448;4.638;2023-11-19T04:24:15;16.30;99.90
17331;DHT22;8783;52.448;4.638;2023-11-19T04:26:44;16.30;99.90
17331;DHT22;8783;52.448;4.638;2023-11-19T04:29:14;16.30;99.90
17331;DHT22;8783;52.448;4.638;2023-11-19T04:31:41;16.20;99.90
17331;DHT22;8783;52.448;4.638;2023-11-19T04:34:07;16.30;99.90
17331;DHT22;8783;52.448;4.638;2023-11-19T04:36:33;16.30;99.90
17331;DHT22;8783;52.448;4.638;2023-11-19T04:39:01;16.20;99.90
17331;DHT22;8783;52.448;4.638;2023-11-19T04:41:28;16.20;99.90
17331;DHT22;8783;52.448;4.638;2023-11-19T04:43:54;16.20;99.90
17331;DHT22;8783;52.448;4.638;2023-11-19T04:46:20;16.20;99.90
17331;DHT22;8783;52.448;4.638;2023-11-19T04:48:46;16.20;99.90
17331;DHT22;8783;52.448;4.638;2023-11-19T04:51:11;16.20;99.90
17331;DHT22;8783;52.448;4.638;2023-11-19T04:53:37;16.20;99.90
17331;DHT22;8783;52.448;4.638;2023-11-19T04:56:10;16.30;99.90
17331;DHT22;8783;52.448;4.638;2023-11-19T04:58:35;16.30;99.90
17331;DHT22;8783;52.448;4.638;2023-11-19T05:01:05;16.20;99.90
17331;DHT22;8783;52.448;4.638;2023-11-19T05:03:31;16.20;99.90
17331;DHT22;8783;52.448;4.638;2023-11-19T05:06:00;16.20;99.90
17331;DHT22;8783;52.448;4.638;2023-11-19T05:08:25;16.20;99.90
17331;DHT22;8783;52.448;4.638;2023-11-19T05:10:51;16.20;99.90
17331;DHT22;8783;52.448;4.638;2023-11-19T05:13:17;16.30;99.90
17331;DHT22;8783;52.448;4.638;2023-11-19T05:15:42;16.20;99.90
17331;DHT22;8783;52.448;4.638;2023-11-19T05:18:08;16.30;99.90
17331;DHT22;8783;52.448;4.638;2023-11-19T05:20:34;16.30;99.90
17331;DHT22;8783;52.448;4.638;2023-11-19T05:23:00;16.30;99.90
17331;DHT22;8783;52.448;4.638;2023-11-19T05:25:29;16.20;99.90
17331;DHT22;8783;52.448;4.638;2023-11-19T05:27:55;16.20;99.90
17331;DHT22;8783;52.448;4.638;2023-11-19T05:30:20;16.20;99.90
17331;DHT22;8783;52.448;4.638;2023-11-19T05:32:46;16.20;99.90
17331;DHT22;8783;52.448;4.638;2023-11-19T05:35:12;16.20;99.90
17331;DHT22;8783;52.448;4.638;2023-11-19T05:37:37;16.30;99.90
17331;DHT22;8783;52.448;4.638;2023-11-19T05:40:04;16.30;99.90
17331;DHT22;8783;52.448;4.638;2023-11-19T05:42:32;16.20;99.90
17331;DHT22;8783;52.448;4.638;2023-11-19T05:44:57;16.20;99.90
17331;DHT22;8783;52.448;4.638;2023-11-19T05:47:23;16.20;99.90
17331;DHT22;8783;52.448;4.638;2023-11-19T05:49:49;16.30;99.90
17331;DHT22;8783;52.448;4.638;2023-11-19T05:52:14;16.20;99.90
17331;DHT22;8783;52.448;4.638;2023-11-19T05:54:40;16.20;99.90
17331;DHT22;8783;52.448;4.638;2023-11-19T05:57:06;16.20;99.90
17331;DHT22;8783;52.448;4.638;2023-11-19T05:59:34;16.20;99.90
17331;DHT22;8783;52.448;4.638;2023-11-19T06:02:01;16.20;99.90
17331;DHT22;8783;52.448;4.638;2023-11-19T06:04:27;16.20;99.90
17331;DHT22;8783;52.448;4.638;2023-11-19T06:06:53;16.20;99.90
17331;DHT22;8783;52.448;4.638;2023-11-19T06:09:20;16.20;99.90
17331;DHT22;8783;52.448;4.638;2023-11-19T06:11:46;16.20;99.90
17331;DHT22;8783;52.448;4.638;2023-11-19T06:14:12;16.20;99.90
17331;DHT22;8783;52.448;4.638;2023-11-19T06:16:38;16.20;99.90
17331;DHT22;8783;52.448;4.638;2023-11-19T06:19:05;16.20;99.90
17331;DHT22;8783;52.448;4.638;2023-11-19T06:21:30;16.20;99.90
17331;DHT22;8783;52.448;4.638;2023-11-19T06:23:56;16.20;99.90
17331;DHT22;8783;52.448;4.638;2023-11-19T06:26:22;16.20;99.90
17331;DHT22;8783;52.448;4.638;2023-11-19T06:28:48;16.20;99.90
17331;DHT22;8783;52.448;4.638;2023-11-19T06:31:14;16.20;99.90
17331;DHT22;8783;52.448;4.638;2023-11-19T06:33:41;16.20;99.90
17331;DHT22;8783;52.448;4.638;2023-11-19T06:36:07;16.20;99.90
17331;DHT22;8783;52.448;4.638;2023-11-19T06:38:34;16.20;99.90
17331;DHT22;8783;52.448;4.638;2023-11-19T06:41:00;16.20;99.90
17331;DHT22;8783;52.448;4.638;2023-11-19T06:43:26;16.20;99.90
17331;DHT22;8783;52.448;4.638;2023-11-19T06:45:53;16.20;99.90
17331;DHT22;8783;52.448;4.638;2023-11-19T06:48:18;16.20;99.90
17331;DHT22;8783;52.448;4.638;2023-11-19T06:50:44;16.30;99.90
17331;DHT22;8783;52.448;4.638;2023-11-19T06:53:09;16.20;99.90
17331;DHT22;8783;52.448;4.638;2023-11-19T06:55:35;16.20;99.90
17331;DHT22;8783;52.448;4.638;2023-11-19T06:58:01;16.20;99.90
17331;DHT22;8783;52.448;4.638;2023-11-19T07:00:28;16.20;99.90
17331;DHT22;8783;52.448;4.638;2023-11-19T07:02:54;16.20;99.90
17331;DHT22;8783;52.448;4.638;2023-11-19T07:05:20;16.20;99.90
17331;DHT22;8783;52.448;4.638;2023-11-19T07:07:46;16.30;99.90
17331;DHT22;8783;52.448;4.638;2023-11-19T07:10:12;16.30;99.90
17331;DHT22;8783;52.448;4.638;2023-11-19T07:12:38;16.20;99.90
17331;DHT22;8783;52.448;4.638;2023-11-19T07:15:04;16.20;99.90
17331;DHT22;8783;52.448;4.638;2023-11-19T07:17:31;16.20;99.90
17331;DHT22;8783;52.448;4.638;2023-11-19T07:19:56;16.30;99.90
17331;DHT22;8783;52.448;4.638;2023-11-19T07:22:25;16.20;99.90
17331;DHT22;8783;52.448;4.638;2023-11-19T07:24:50;16.20;99.90
17331;DHT22;8783;52.448;4.638;2023-11-19T07:27:16;16.20;99.90
17331;DHT22;8783;52.448;4.638;2023-11-19T07:29:43;16.20;99.90
17331;DHT22;8783;52.448;4.638;2023-11-19T07:32:10;16.30;99.90
17331;DHT22;8783;52.448;4.638;2023-11-19T07:34:36;16.30;99.90
17331;DHT22;8783;52.448;4.638;2023-11-19T07:37:01;16.20;99.90
17331;DHT22;8783;52.448;4.638;2023-11-19T07:39:35;16.30;99.90
17331;DHT22;8783;52.448;4.638;2023-11-19T07:42:03;16.30;99.90
17331;DHT22;8783;52.448;4.638;2023-11-19T07:44:29;16.20;99.90
17331;DHT22;8783;52.448;4.638;2023-11-19T07:46:54;16.30;99.90
17331;DHT22;8783;52.448;4.638;2023-11-19T07:49:20;16.30;99.90
17331;DHT22;8783;52.448;4.638;2023-11-19T07:51:46;16.30;99.90
17331;DHT22;8783;52.448;4.638;2023-11-19T07:54:11;16.20;99.90
17331;DHT22;8783;52.448;4.638;2023-11-19T07:56:37;16.30;99.90
17331;DHT22;8783;52.448;4.638;2023-11-19T07:59:02;16.20;99.90
17331;DHT22;8783;52.448;4.638;2023-11-19T08:01:29;16.30;99.90
17331;DHT22;8783;52.448;4.638;2023-11-19T08:03:54;16.20;99.90
17331;DHT22;8783;52.448;4.638;2023-11-19T08:06:20;16.30;99.90
17331;DHT22;8783;52.448;4.638;2023-11-19T08:08:46;16.30;99.90
17331;DHT22;8783;52.448;4.638;2023-11-19T08:11:13;16.30;99.90
17331;DHT22;8783;52.448;4.638;2023-11-19T08:13:39;16.40;99.90
17331;DHT22;8783;52.448;4.638;2023-11-19T08:16:05;16.40;99.90
17331;DHT22;8783;52.448;4.638;2023-11-19T08:18:31;16.50;99.90
17331;DHT22;8783;52.448;4.638;2023-11-19T08:20:56;16.50;99.90
17331;DHT22;8783;52.448;4.638;2023-11-19T08:23:23;16.50;99.90
17331;DHT22;8783;52.448;4.638;2023-11-19T08:25:51;16.50;99.90
17331;DHT22;8783;52.448;4.638;2023-11-19T08:28:17;16.50;99.90
17331;DHT22;8783;52.448;4.638;2023-11-19T08:30:43;16.60;99.90
17331;DHT22;8783;52.448;4.638;2023-11-19T08:33:09;16.60;99.90
17331;DHT22;8783;52.448;4.638;2023-11-19T08:35:35;16.60;99.90
17331;DHT22;8783;52.448;4.638;2023-11-19T08:38:01;16.60;99.90
17331;DHT22;8783;52.448;4.638;2023-11-19T08:40:27;16.70;99.90
17331;DHT22;8783;52.448;4.638;2023-11-19T08:42:53;16.70;99.90
17331;DHT22;8783;52.448;4.638;2023-11-19T08:45:18;16.70;99.90
17331;DHT22;8783;52.448;4.638;2023-11-19T08:47:44;16.70;99.90
17331;DHT22;8783;52.448;4.638;2023-11-19T08:50:11;16.70;99.90
17331;DHT22;8783;52.448;4.638;2023-11-19T08:52:37;16.70;99.90
17331;DHT22;8783;52.448;4.638;2023-11-19T08:55:02;16.70;99.90
17331;DHT22;8783;52.448;4.638;2023-11-19T08:57:30;16.70;99.90
17331;DHT22;8783;52.448;4.638;2023-11-19T08:59:56;16.80;99.90
17331;DHT22;8783;52.448;4.638;2023-11-19T09:02:22;16.80;99.90
17331;DHT22;8783;52.448;4.638;2023-11-19T09:04:47;16.80;99.90
17331;DHT22;8783;52.448;4.638;2023-11-19T09:07:13;16.90;99.90
17331;DHT22;8783;52.448;4.638;2023-11-19T09:09:38;16.90;99.90
17331;DHT22;8783;52.448;4.638;2023-11-19T09:12:04;16.90;99.90
17331;DHT22;8783;52.448;4.638;2023-11-19T09:14:30;16.90;99.90
17331;DHT22;8783;52.448;4.638;2023-11-19T09:16:56;16.90;99.90
17331;DHT22;8783;52.448;4.638;2023-11-19T09:19:22;16.90;99.90
17331;DHT22;8783;52.448;4.638;2023-11-19T09:21:48;16.90;99.90
17331;DHT22;8783;52.448;4.638;2023-11-19T09:24:15;17.00;99.90
17331;DHT22;8783;52.448;4.638;2023-11-19T09:26:40;17.00;99.90
17331;DHT22;8783;52.448;4.638;2023-11-19T09:29:10;17.00;99.90
17331;DHT22;8783;52.448;4.638;2023-11-19T09:31:38;17.00;99.90
17331;DHT22;8783;52.448;4.638;2023-11-19T09:34:04;17.00;99.90
17331;DHT22;8783;52.448;4.638;2023-11-19T09:36:29;17.00;99.90
17331;DHT22;8783;52.448;4.638;2023-11-19T09:38:55;17.00;99.90
17331;DHT22;8783;52.448;4.638;2023-11-19T09:41:21;17.10;99.90
17331;DHT22;8783;52.448;4.638;2023-11-19T09:43:47;17.10;99.90
17331;DHT22;8783;52.448;4.638;2023-11-19T09:46:16;17.10;99.90
17331;DHT22;8783;52.448;4.638;2023-11-19T09:48:42;17.10;99.90
17331;DHT22;8783;52.448;4.638;2023-11-19T09:51:10;17.10;99.90
17331;DHT22;8783;52.448;4.638;2023-11-19T09:53:37;17.10;99.90
17331;DHT22;8783;52.448;4.638;2023-11-19T09:56:03;17.10;99.90
17331;DHT22;8783;52.448;4.638;2023-11-19T09:58:30;17.10;99.90
17331;DHT22;8783;52.448;4.638;2023-11-19T10:00:56;17.20;99.90
17331;DHT22;8783;52.448;4.638;2023-11-19T10:03:25;17.20;99.90
17331;DHT22;8783;52.448;4.638;2023-11-19T10:05:52;17.20;99.90
17331;DHT22;8783;52.448;4.638;2023-11-19T10:08:18;17.20;99.90
17331;DHT22;8783;52.448;4.638;2023-11-19T10:10:44;17.20;99.90
17331;DHT22;8783;52.448;4.638;2023-11-19T10:13:09;17.20;99.90
17331;DHT22;8783;52.448;4.638;2023-11-19T10:15:36;17.30;99.90
17331;DHT22;8783;52.448;4.638;2023-11-19T10:18:03;17.30;99.90
17331;DHT22;8783;52.448;4.638;2023-11-19T10:20:40;17.30;99.90
17331;DHT22;8783;52.448;4.638;2023-11-19T10:23:06;17.30;99.90
17331;DHT22;8783;52.448;4.638;2023-11-19T10:25:33;17.30;99.90
17331;DHT22;8783;52.448;4.638;2023-11-19T10:27:59;17.30;99.90
17331;DHT22;8783;52.448;4.638;2023-11-19T10:33:05;17.40;99.90
17331;DHT22;8783;52.448;4.638;2023-11-19T10:35:33;17.40;99.90
17331;DHT22;8783;52.448;4.638;2023-11-19T10:38:00;17.40;99.90
17331;DHT22;8783;52.448;4.638;2023-11-19T10:40:38;17.40;99.90
17331;DHT22;8783;52.448;4.638;2023-11-19T10:43:05;17.40;99.90
17331;DHT22;8783;52.448;4.638;2023-11-19T10:45:33;17.50;99.90
17331;DHT22;8783;52.448;4.638;2023-11-19T10:47:59;17.50;99.90
17331;DHT22;8783;52.448;4.638;2023-11-19T10:50:28;17.50;99.90
17331;DHT22;8783;52.448;4.638;2023-11-19T10:52:56;17.40;99.90
17331;DHT22;8783;52.448;4.638;2023-11-19T10:55:27;17.40;99.90
17331;DHT22;8783;52.448;4.638;2023-11-19T10:58:02;17.40;99.90
17331;DHT22;8783;52.448;4.638;2023-11-19T11:00:46;17.50;99.90
17331;DHT22;8783;52.448;4.638;2023-11-19T11:03:19;17.60;99.90
17331;DHT22;8783;52.448;4.638;2023-11-19T11:05:50;17.60;99.90
17331;DHT22;8783;52.448;4.638;2023-11-19T11:08:17;17.70;99.90
17331;DHT22;8783;52.448;4.638;2023-11-19T11:10:45;17.60;99.90
17331;DHT22;8783;52.448;4.638;2023-11-19T11:13:14;17.70;99.90
17331;DHT22;8783;52.448;4.638;2023-11-19T11:15:39;17.70;99.90
17331;DHT22;8783;52.448;4.638;2023-11-19T11:18:08;17.70;99.90
17331;DHT22;8783;52.448;4.638;2023-11-19T11:20:35;17.70;99.90
17331;DHT22;8783;52.448;4.638;2023-11-19T11:28:35;17.70;99.90
17331;DHT22;8783;52.448;4.638;2023-11-19T11:31:48;17.70;99.90
17331;DHT22;8783;52.448;4.638;2023-11-19T11:37:16;17.60;99.90
17331;DHT22;8783;52.448;4.638;2023-11-19T11:39:43;17.60;99.90
17331;DHT22;8783;52.448;4.638;2023-11-19T11:45:02;17.70;99.90
17331;DHT22;8783;52.448;4.638;2023-11-19T11:50:09;17.70;99.90
17331;DHT22;8783;52.448;4.638;2023-11-19T11:55:37;17.70;99.90
17331;DHT22;8783;52.448;4.638;2023-11-19T11:58:20;17.70;99.90
17331;DHT22;8783;52.448;4.638;2023-11-19T12:00:47;17.70;99.90
17331;DHT22;8783;52.448;4.638;2023-11-19T12:03:14;17.70;99.90
17331;DHT22;8783;52.448;4.638;2023-11-19T12:05:44;17.70;99.90
17331;DHT22;8783;52.448;4.638;2023-11-19T12:08:11;17.70;99.90
17331;DHT22;8783;52.448;4.638;2023-11-19T12:10:50;17.70;99.90
17331;DHT22;8783;52.448;4.638;2023-11-19T12:13:17;17.70;99.90
17331;DHT22;8783;52.448;4.638;2023-11-19T12:18:29;17.70;99.90
17331;DHT22;8783;52.448;4.638;2023-11-19T12:20:56;17.60;99.90
17331;DHT22;8783;52.448;4.638;2023-11-19T12:23:22;17.70;99.90
17331;DHT22;8783;52.448;4.638;2023-11-19T12:25:48;17.60;99.90
17331;DHT22;8783;52.448;4.638;2023-11-19T12:28:15;17.70;99.90
17331;DHT22;8783;52.448;4.638;2023-11-19T12:30:43;17.70;99.90
17331;DHT22;8783;52.448;4.638;2023-11-19T12:33:10;17.60;99.90
17331;DHT22;8783;52.448;4.638;2023-11-19T12:35:42;17.60;99.90
17331;DHT22;8783;52.448;4.638;2023-11-19T12:38:17;17.60;99.90
17331;DHT22;8783;52.448;4.638;2023-11-19T12:40:43;17.60;99.90
17331;DHT22;8783;52.448;4.638;2023-11-19T12:43:09;17.60;99.90
17331;DHT22;8783;52.448;4.638;2023-11-19T12:45:35;17.60;99.90
17331;DHT22;8783;52.448;4.638;2023-11-19T12:48:05;17.60;99.90
17331;DHT22;8783;52.448;4.638;2023-11-19T12:50:54;17.60;99.90
17331;DHT22;8783;52.448;4.638;2023-11-19T12:53:21;17.60;99.90
17331;DHT22;8783;52.448;4.638;2023-11-19T12:55:46;17.50;99.90
17331;DHT22;8783;52.448;4.638;2023-11-19T12:58:31;17.60;99.90
17331;DHT22;8783;52.448;4.638;2023-11-19T13:01:05;17.50;99.90
17331;DHT22;8783;52.448;4.638;2023-11-19T13:03:35;17.60;99.90
17331;DHT22;8783;52.448;4.638;2023-11-19T13:06:06;17.60;99.90
17331;DHT22;8783;52.448;4.638;2023-11-19T13:08:51;17.60;99.90
17331;DHT22;8783;52.448;4.638;2023-11-19T13:11:33;17.60;99.90
17331;DHT22;8783;52.448;4.638;2023-11-19T13:14:05;17.60;99.90
17331;DHT22;8783;52.448;4.638;2023-11-19T13:16:36;17.70;99.90
17331;DHT22;8783;52.448;4.638;2023-11-19T13:19:02;17.70;99.90
17331;DHT22;8783;52.448;4.638;2023-11-19T13:21:28;17.70;99.90
17331;DHT22;8783;52.448;4.638;2023-11-19T13:23:57;17.80;99.90
17331;DHT22;8783;52.448;4.638;2023-11-19T13:26:23;17.80;99.90
17331;DHT22;8783;52.448;4.638;2023-11-19T13:28:49;17.70;99.90
17331;DHT22;8783;52.448;4.638;2023-11-19T13:31:15;17.80;99.90
17331;DHT22;8783;52.448;4.638;2023-11-19T13:33:41;17.80;99.90
17331;DHT22;8783;52.448;4.638;2023-11-19T13:36:07;17.80;99.90
17331;DHT22;8783;52.448;4.638;2023-11-19T13:38:35;17.80;99.90
17331;DHT22;8783;52.448;4.638;2023-11-19T13:41:02;17.80;99.90
17331;DHT22;8783;52.448;4.638;2023-11-19T13:43:27;17.80;99.90
17331;DHT22;8783;52.448;4.638;2023-11-19T13:45:54;17.80;99.90
17331;DHT22;8783;52.448;4.638;2023-11-19T13:48:20;17.80;99.90
17331;DHT22;8783;52.448;4.638;2023-11-19T13:50:46;17.80;99.90
17331;DHT22;8783;52.448;4.638;2023-11-19T13:53:11;17.80;99.90
17331;DHT22;8783;52.448;4.638;2023-11-19T13:55:37;17.80;99.90
17331;DHT22;8783;52.448;4.638;2023-11-19T13:58:03;17.80;99.90
17331;DHT22;8783;52.448;4.638;2023-11-19T14:00:28;17.90;99.90
17331;DHT22;8783;52.448;4.638;2023-11-19T14:02:54;17.90;99.90
17331;DHT22;8783;52.448;4.638;2023-11-19T14:05:19;17.90;99.90
17331;DHT22;8783;52.448;4.638;2023-11-19T14:07:45;18.00;99.90
17331;DHT22;8783;52.448;4.638;2023-11-19T14:10:14;18.00;99.90
17331;DHT22;8783;52.448;4.638;2023-11-19T14:12:40;18.00;99.90
17331;DHT22;8783;52.448;4.638;2023-11-19T14:15:08;18.00;99.90
17331;DHT22;8783;52.448;4.638;2023-11-19T14:17:42;18.00;99.90
17331;DHT22;8783;52.448;4.638;2023-11-19T14:20:09;18.00;99.90
17331;DHT22;8783;52.448;4.638;2023-11-19T14:22:41;17.90;99.90
17331;DHT22;8783;52.448;4.638;2023-11-19T14:25:09;18.00;99.90
17331;DHT22;8783;52.448;4.638;2023-11-19T14:27:38;18.00;99.90
17331;DHT22;8783;52.448;4.638;2023-11-19T14:30:05;18.00;99.90
17331;DHT22;8783;52.448;4.638;2023-11-19T14:32:31;18.00;99.90
17331;DHT22;8783;52.448;4.638;2023-11-19T14:34:57;18.00;99.90
17331;DHT22;8783;52.448;4.638;2023-11-19T14:37:23;18.00;99.90
17331;DHT22;8783;52.448;4.638;2023-11-19T14:39:48;18.00;99.90
17331;DHT22;8783;52.448;4.638;2023-11-19T14:42:16;18.00;99.90
17331;DHT22;8783;52.448;4.638;2023-11-19T14:44:42;17.90;99.90
17331;DHT22;8783;52.448;4.638;2023-11-19T14:47:07;17.90;99.90
17331;DHT22;8783;52.448;4.638;2023-11-19T14:49:35;17.90;99.90
17331;DHT22;8783;52.448;4.638;2023-11-19T14:52:01;17.90;99.90
17331;DHT22;8783;52.448;4.638;2023-11-19T14:54:26;18.00;99.90
17331;DHT22;8783;52.448;4.638;2023-11-19T14:56:52;17.90;99.90
17331;DHT22;8783;52.448;4.638;2023-11-19T14:59:18;18.00;99.90
17331;DHT22;8783;52.448;4.638;2023-11-19T15:01:45;17.90;99.90
17331;DHT22;8783;52.448;4.638;2023-11-19T15:04:11;18.00;99.90
17331;DHT22;8783;52.448;4.638;2023-11-19T15:06:37;18.00;99.90
17331;DHT22;8783;52.448;4.638;2023-11-19T15:09:03;18.00;99.90
17331;DHT22;8783;52.448;4.638;2023-11-19T15:11:29;17.90;99.90
17331;DHT22;8783;52.448;4.638;2023-11-19T15:13:55;18.00;99.90
17331;DHT22;8783;52.448;4.638;2023-11-19T15:16:20;17.90;99.90
17331;DHT22;8783;52.448;4.638;2023-11-19T15:18:51;18.00;99.90
17331;DHT22;8783;52.448;4.638;2023-11-19T15:21:17;17.90;99.90
17331;DHT22;8783;52.448;4.638;2023-11-19T15:23:43;17.90;99.90
17331;DHT22;8783;52.448;4.638;2023-11-19T15:26:09;17.90;99.90
17331;DHT22;8783;52.448;4.638;2023-11-19T15:28:36;17.90;99.90
17331;DHT22;8783;52.448;4.638;2023-11-19T15:31:02;17.90;99.90
17331;DHT22;8783;52.448;4.638;2023-11-19T15:33:28;17.90;99.90
17331;DHT22;8783;52.448;4.638;2023-11-19T15:35:54;17.90;99.90
17331;DHT22;8783;52.448;4.638;2023-11-19T15:38:19;17.90;99.90
17331;DHT22;8783;52.448;4.638;2023-11-19T15:40:45;17.90;99.90
17331;DHT22;8783;52.448;4.638;2023-11-19T15:43:11;17.90;99.90
17331;DHT22;8783;52.448;4.638;2023-11-19T15:45:36;17.90;99.90
17331;DHT22;8783;52.448;4.638;2023-11-19T15:48:05;17.90;99.90
17331;DHT22;8783;52.448;4.638;2023-11-19T15:50:31;17.90;99.90
17331;DHT22;8783;52.448;4.638;2023-11-19T15:52:57;17.90;99.90
17331;DHT22;8783;52.448;4.638;2023-11-19T15:55:24;17.90;99.90
17331;DHT22;8783;52.448;4.638;2023-11-19T15:57:50;17.90;99.90
17331;DHT22;8783;52.448;4.638;2023-11-19T16:00:16;17.90;99.90
17331;DHT22;8783;52.448;4.638;2023-11-19T16:02:42;17.90;99.90
17331;DHT22;8783;52.448;4.638;2023-11-19T16:05:08;17.90;99.90
17331;DHT22;8783;52.448;4.638;2023-11-19T16:07:34;17.90;99.90